sensor_id;sensor_type;location;lat;lon;timestamp;pressure;altitude;pressure_sealevel;temperature
73937;BMP180;59249;59.736;30.568;2022-12-18T00:01:57;102031.00;;;-6.10
73937;BMP180;59249;59.736;30.568;2022-12-18T00:04:29;102032.00;;;-6.10
73937;BMP180;59249;59.736;30.568;2022-12-18T00:07:00;102029.00;;;-6.00
73937;BMP180;59249;59.736;30.568;2022-12-18T00:09:28;102030.00;;;-6.10
73937;BMP180;59249;59.736;30.568;2022-12-18T00:12:07;102029.00;;;-6.00
73937;BMP180;59249;59.736;30.568;2022-12-18T00:14:43;102026.00;;;-6.10
73937;BMP180;59249;59.736;30.568;2022-12-18T00:17:17;102027.00;;;-6.10
73937;BMP180;59249;59.736;30.568;2022-12-18T00:19:46;102025.00;;;-6.20
73937;BMP180;59249;59.736;30.568;2022-12-18T00:22:18;102021.00;;;-6.20
73937;BMP180;59249;59.736;30.568;2022-12-18T00:24:58;102034.00;;;-6.20
73937;BMP180;59249;59.736;30.568;2022-12-18T00:27:27;102036.00;;;-6.20
73937;BMP180;59249;59.736;30.568;2022-12-18T00:29:56;102036.00;;;-6.10
73937;BMP180;59249;59.736;30.568;2022-12-18T00:32:25;102031.00;;;-6.00
73937;BMP180;59249;59.736;30.568;2022-12-18T00:34:54;102035.00;;;-6.10
73937;BMP180;59249;59.736;30.568;2022-12-18T00:37:26;102029.00;;;-6.00
73937;BMP180;59249;59.736;30.568;2022-12-18T00:40:02;102024.00;;;-6.00
73937;BMP180;59249;59.736;30.568;2022-12-18T00:42:40;102027.00;;;-6.10
73937;BMP180;59249;59.736;30.568;2022-12-18T00:45:25;102021.00;;;-6.10
73937;BMP180;59249;59.736;30.568;2022-12-18T00:47:56;102026.00;;;-6.10
73937;BMP180;59249;59.736;30.568;2022-12-18T00:50:28;102019.00;;;-6.00
73937;BMP180;59249;59.736;30.568;2022-12-18T00:53:02;102013.00;;;-6.00
73937;BMP180;59249;59.736;30.568;2022-12-18T00:55:31;102014.00;;;-6.00
73937;BMP180;59249;59.736;30.568;2022-12-18T00:58:01;102017.00;;;-5.90
73937;BMP180;59249;59.736;30.568;2022-12-18T01:00:30;102023.00;;;-5.90
73937;BMP180;59249;59.736;30.568;2022-12-18T01:02:59;102021.00;;;-6.00
73937;BMP180;59249;59.736;30.568;2022-12-18T01:05:28;102014.00;;;-6.00
73937;BMP180;59249;59.736;30.568;2022-12-18T01:07:57;102028.00;;;-5.90
73937;BMP180;59249;59.736;30.568;2022-12-18T01:10:29;102017.00;;;-6.00
73937;BMP180;59249;59.736;30.568;2022-12-18T01:12:58;102021.00;;;-6.10
73937;BMP180;59249;59.736;30.568;2022-12-18T01:15:27;102009.00;;;-6.10
73937;BMP180;59249;59.736;30.568;2022-12-18T01:17:56;102013.00;;;-6.00
73937;BMP180;59249;59.736;30.568;2022-12-18T01:20:26;102015.00;;;-6.00
73937;BMP180;59249;59.736;30.568;2022-12-18T01:22:55;102016.00;;;-5.90
73937;BMP180;59249;59.736;30.568;2022-12-18T01:25:23;102011.00;;;-5.90
73937;BMP180;59249;59.736;30.568;2022-12-18T01:27:54;102013.00;;;-5.90
73937;BMP180;59249;59.736;30.568;2022-12-18T01:30:24;102014.00;;;-6.10
73937;BMP180;59249;59.736;30.568;2022-12-18T01:32:54;102018.00;;;-6.00
73937;BMP180;59249;59.736;30.568;2022-12-18T01:35:25;102020.00;;;-5.90
73937;BMP180;59249;59.736;30.568;2022-12-18T01:37:55;102015.00;;;-5.90
73937;BMP180;59249;59.736;30.568;2022-12-18T01:40:24;102009.00;;;-6.00
73937;BMP180;59249;59.736;30.568;2022-12-18T01:42:55;102005.00;;;-6.00
73937;BMP180;59249;59.736;30.568;2022-12-18T01:45:27;102006.00;;;-6.10
73937;BMP180;59249;59.736;30.568;2022-12-18T01:47:59;102013.00;;;-6.00
73937;BMP180;59249;59.736;30.568;2022-12-18T01:50:32;102006.00;;;-6.00
73937;BMP180;59249;59.736;30.568;2022-12-18T01:53:11;101996.00;;;-6.00
73937;BMP180;59249;59.736;30.568;2022-12-18T01:55:44;102000.00;;;-6.00
73937;BMP180;59249;59.736;30.568;2022-12-18T01:58:16;102011.00;;;-6.00
73937;BMP180;59249;59.736;30.568;2022-12-18T02:00:54;102000.00;;;-5.90
73937;BMP180;59249;59.736;30.568;2022-12-18T02:03:23;102004.00;;;-6.20
73937;BMP180;59249;59.736;30.568;2022-12-18T02:05:57;101999.00;;;-6.20
73937;BMP180;59249;59.736;30.568;2022-12-18T02:08:39;102003.00;;;-6.30
73937;BMP180;59249;59.736;30.568;2022-12-18T02:11:24;102003.00;;;-6.20
73937;BMP180;59249;59.736;30.568;2022-12-18T02:14:13;102001.00;;;-6.10
73937;BMP180;59249;59.736;30.568;2022-12-18T02:16:53;101999.00;;;-6.10
73937;BMP180;59249;59.736;30.568;2022-12-18T02:19:40;102003.00;;;-6.10
73937;BMP180;59249;59.736;30.568;2022-12-18T02:22:27;101998.00;;;-6.20
73937;BMP180;59249;59.736;30.568;2022-12-18T02:25:17;101985.00;;;-6.20
73937;BMP180;59249;59.736;30.568;2022-12-18T02:28:01;101986.00;;;-6.10
73937;BMP180;59249;59.736;30.568;2022-12-18T02:30:35;102001.00;;;-6.20
73937;BMP180;59249;59.736;30.568;2022-12-18T02:33:08;102000.00;;;-6.20
73937;BMP180;59249;59.736;30.568;2022-12-18T02:35:40;101998.00;;;-6.20
73937;BMP180;59249;59.736;30.568;2022-12-18T02:38:14;101995.00;;;-6.10
73937;BMP180;59249;59.736;30.568;2022-12-18T02:40:48;101998.00;;;-6.20
73937;BMP180;59249;59.736;30.568;2022-12-18T02:43:20;101998.00;;;-6.20
73937;BMP180;59249;59.736;30.568;2022-12-18T02:45:52;101983.00;;;-6.10
73937;BMP180;59249;59.736;30.568;2022-12-18T02:48:25;101988.00;;;-6.30
73937;BMP180;59249;59.736;30.568;2022-12-18T02:51:02;101986.00;;;-6.30
73937;BMP180;59249;59.736;30.568;2022-12-18T02:53:43;101983.00;;;-6.30
73937;BMP180;59249;59.736;30.568;2022-12-18T02:56:20;101983.00;;;-6.20
73937;BMP180;59249;59.736;30.568;2022-12-18T02:58:59;101985.00;;;-6.10
73937;BMP180;59249;59.736;30.568;2022-12-18T03:01:45;101979.00;;;-6.20
73937;BMP180;59249;59.736;30.568;2022-12-18T03:04:25;101986.00;;;-6.10
73937;BMP180;59249;59.736;30.568;2022-12-18T03:07:08;101990.00;;;-6.10
73937;BMP180;59249;59.736;30.568;2022-12-18T03:09:46;101984.00;;;-6.10
73937;BMP180;59249;59.736;30.568;2022-12-18T03:12:21;101984.00;;;-6.00
73937;BMP180;59249;59.736;30.568;2022-12-18T03:15:02;101977.00;;;-6.10
73937;BMP180;59249;59.736;30.568;2022-12-18T03:17:46;101993.00;;;-6.00
73937;BMP180;59249;59.736;30.568;2022-12-18T03:20:26;101991.00;;;-6.00
73937;BMP180;59249;59.736;30.568;2022-12-18T03:23:04;101984.00;;;-6.00
73937;BMP180;59249;59.736;30.568;2022-12-18T03:25:39;101988.00;;;-6.00
73937;BMP180;59249;59.736;30.568;2022-12-18T03:28:16;101989.00;;;-6.10
73937;BMP180;59249;59.736;30.568;2022-12-18T03:30:56;101988.00;;;-6.10
73937;BMP180;59249;59.736;30.568;2022-12-18T03:33:32;101994.00;;;-6.10
73937;BMP180;59249;59.736;30.568;2022-12-18T03:36:07;101989.00;;;-6.10
73937;BMP180;59249;59.736;30.568;2022-12-18T03:38:37;101998.00;;;-6.20
73937;BMP180;59249;59.736;30.568;2022-12-18T03:41:16;101993.00;;;-6.30
73937;BMP180;59249;59.736;30.568;2022-12-18T03:44:21;101994.00;;;-6.30
73937;BMP180;59249;59.736;30.568;2022-12-18T03:47:04;101994.00;;;-6.30
73937;BMP180;59249;59.736;30.568;2022-12-18T03:49:41;101989.00;;;-6.20
73937;BMP180;59249;59.736;30.568;2022-12-18T03:52:21;101981.00;;;-6.30
73937;BMP180;59249;59.736;30.568;2022-12-18T03:54:57;101987.00;;;-6.20
73937;BMP180;59249;59.736;30.568;2022-12-18T03:57:30;101992.00;;;-6.20
73937;BMP180;59249;59.736;30.568;2022-12-18T04:00:05;102001.00;;;-6.30
73937;BMP180;59249;59.736;30.568;2022-12-18T04:03:04;101994.00;;;-6.30
73937;BMP180;59249;59.736;30.568;2022-12-18T04:05:44;101990.00;;;-6.20
73937;BMP180;59249;59.736;30.568;2022-12-18T04:08:17;102002.00;;;-6.30
73937;BMP180;59249;59.736;30.568;2022-12-18T04:10:56;101998.00;;;-6.40
73937;BMP180;59249;59.736;30.568;2022-12-18T04:13:28;101995.00;;;-6.40
73937;BMP180;59249;59.736;30.568;2022-12-18T04:16:01;101997.00;;;-6.50
73937;BMP180;59249;59.736;30.568;2022-12-18T04:18:32;101999.00;;;-6.40
73937;BMP180;59249;59.736;30.568;2022-12-18T04:21:03;102005.00;;;-6.40
73937;BMP180;59249;59.736;30.568;2022-12-18T04:23:32;102001.00;;;-6.50
73937;BMP180;59249;59.736;30.568;2022-12-18T04:26:01;101999.00;;;-6.50
73937;BMP180;59249;59.736;30.568;2022-12-18T04:28:49;101994.00;;;-6.40
73937;BMP180;59249;59.736;30.568;2022-12-18T04:31:18;101995.00;;;-6.50
73937;BMP180;59249;59.736;30.568;2022-12-18T04:33:49;101984.00;;;-6.40
73937;BMP180;59249;59.736;30.568;2022-12-18T04:36:18;101998.00;;;-6.50
73937;BMP180;59249;59.736;30.568;2022-12-18T04:38:47;101994.00;;;-6.40
73937;BMP180;59249;59.736;30.568;2022-12-18T04:41:17;101997.00;;;-6.30
73937;BMP180;59249;59.736;30.568;2022-12-18T04:43:48;102000.00;;;-6.50
73937;BMP180;59249;59.736;30.568;2022-12-18T04:46:16;101998.00;;;-6.40
73937;BMP180;59249;59.736;30.568;2022-12-18T04:48:46;102004.00;;;-6.50
73937;BMP180;59249;59.736;30.568;2022-12-18T04:51:16;102012.00;;;-6.40
73937;BMP180;59249;59.736;30.568;2022-12-18T04:53:52;102007.00;;;-6.40
73937;BMP180;59249;59.736;30.568;2022-12-18T04:56:21;102000.00;;;-6.40
73937;BMP180;59249;59.736;30.568;2022-12-18T04:58:50;102015.00;;;-6.40
73937;BMP180;59249;59.736;30.568;2022-12-18T05:01:19;102005.00;;;-6.40
73937;BMP180;59249;59.736;30.568;2022-12-18T05:03:48;102000.00;;;-6.40
73937;BMP180;59249;59.736;30.568;2022-12-18T05:06:23;102011.00;;;-6.50
73937;BMP180;59249;59.736;30.568;2022-12-18T05:08:53;102006.00;;;-6.40
73937;BMP180;59249;59.736;30.568;2022-12-18T05:11:22;102005.00;;;-6.50
73937;BMP180;59249;59.736;30.568;2022-12-18T05:13:50;102000.00;;;-6.60
73937;BMP180;59249;59.736;30.568;2022-12-18T05:16:20;101991.00;;;-6.70
73937;BMP180;59249;59.736;30.568;2022-12-18T05:18:55;102002.00;;;-6.70
73937;BMP180;59249;59.736;30.568;2022-12-18T05:21:25;102001.00;;;-6.80
73937;BMP180;59249;59.736;30.568;2022-12-18T05:23:54;102003.00;;;-6.70
73937;BMP180;59249;59.736;30.568;2022-12-18T05:26:22;102011.00;;;-6.60
73937;BMP180;59249;59.736;30.568;2022-12-18T05:28:51;102014.00;;;-6.60
73937;BMP180;59249;59.736;30.568;2022-12-18T05:31:20;101995.00;;;-6.70
73937;BMP180;59249;59.736;30.568;2022-12-18T05:33:49;102006.00;;;-6.60
73937;BMP180;59249;59.736;30.568;2022-12-18T05:36:18;101993.00;;;-6.50
73937;BMP180;59249;59.736;30.568;2022-12-18T05:38:48;102000.00;;;-6.50
73937;BMP180;59249;59.736;30.568;2022-12-18T05:41:17;102011.00;;;-6.60
73937;BMP180;59249;59.736;30.568;2022-12-18T05:43:46;102005.00;;;-6.70
73937;BMP180;59249;59.736;30.568;2022-12-18T05:46:16;102011.00;;;-6.70
73937;BMP180;59249;59.736;30.568;2022-12-18T05:48:46;101996.00;;;-6.70
73937;BMP180;59249;59.736;30.568;2022-12-18T05:51:17;102000.00;;;-6.60
73937;BMP180;59249;59.736;30.568;2022-12-18T05:53:49;102008.00;;;-6.80
73937;BMP180;59249;59.736;30.568;2022-12-18T05:56:22;102009.00;;;-6.70
73937;BMP180;59249;59.736;30.568;2022-12-18T05:58:51;102004.00;;;-6.70
73937;BMP180;59249;59.736;30.568;2022-12-18T06:01:23;102002.00;;;-6.60
73937;BMP180;59249;59.736;30.568;2022-12-18T06:03:54;102005.00;;;-6.70
73937;BMP180;59249;59.736;30.568;2022-12-18T06:06:25;102003.00;;;-6.60
73937;BMP180;59249;59.736;30.568;2022-12-18T06:08:56;102006.00;;;-6.70
73937;BMP180;59249;59.736;30.568;2022-12-18T06:11:26;102006.00;;;-6.80
73937;BMP180;59249;59.736;30.568;2022-12-18T06:13:56;102004.00;;;-6.80
73937;BMP180;59249;59.736;30.568;2022-12-18T06:16:27;102014.00;;;-6.80
73937;BMP180;59249;59.736;30.568;2022-12-18T06:18:57;102020.00;;;-6.90
73937;BMP180;59249;59.736;30.568;2022-12-18T06:21:26;102008.00;;;-6.80
73937;BMP180;59249;59.736;30.568;2022-12-18T06:23:57;102020.00;;;-7.10
73937;BMP180;59249;59.736;30.568;2022-12-18T06:26:26;102026.00;;;-7.00
73937;BMP180;59249;59.736;30.568;2022-12-18T06:28:55;102020.00;;;-7.00
73937;BMP180;59249;59.736;30.568;2022-12-18T06:31:25;102028.00;;;-7.00
73937;BMP180;59249;59.736;30.568;2022-12-18T06:33:55;102029.00;;;-6.90
73937;BMP180;59249;59.736;30.568;2022-12-18T06:36:24;102023.00;;;-7.00
73937;BMP180;59249;59.736;30.568;2022-12-18T06:38:52;102025.00;;;-6.90
73937;BMP180;59249;59.736;30.568;2022-12-18T06:41:23;102015.00;;;-6.90
73937;BMP180;59249;59.736;30.568;2022-12-18T06:43:51;102029.00;;;-6.90
73937;BMP180;59249;59.736;30.568;2022-12-18T06:46:25;102027.00;;;-6.90
73937;BMP180;59249;59.736;30.568;2022-12-18T06:48:54;102026.00;;;-6.90
73937;BMP180;59249;59.736;30.568;2022-12-18T06:51:23;102020.00;;;-6.90
73937;BMP180;59249;59.736;30.568;2022-12-18T06:53:52;102021.00;;;-6.90
73937;BMP180;59249;59.736;30.568;2022-12-18T06:56:22;102025.00;;;-6.90
73937;BMP180;59249;59.736;30.568;2022-12-18T06:58:51;102024.00;;;-7.00
73937;BMP180;59249;59.736;30.568;2022-12-18T07:01:21;102011.00;;;-7.10
73937;BMP180;59249;59.736;30.568;2022-12-18T07:03:51;102023.00;;;-7.00
73937;BMP180;59249;59.736;30.568;2022-12-18T07:06:23;102016.00;;;-7.00
73937;BMP180;59249;59.736;30.568;2022-12-18T07:08:53;102021.00;;;-7.00
73937;BMP180;59249;59.736;30.568;2022-12-18T07:11:24;102010.00;;;-7.00
73937;BMP180;59249;59.736;30.568;2022-12-18T07:13:53;102009.00;;;-7.10
73937;BMP180;59249;59.736;30.568;2022-12-18T07:16:22;102013.00;;;-7.10
73937;BMP180;59249;59.736;30.568;2022-12-18T07:18:52;102021.00;;;-7.10
73937;BMP180;59249;59.736;30.568;2022-12-18T07:21:23;102014.00;;;-7.00
73937;BMP180;59249;59.736;30.568;2022-12-18T07:23:52;102022.00;;;-7.20
73937;BMP180;59249;59.736;30.568;2022-12-18T07:26:21;102011.00;;;-7.10
73937;BMP180;59249;59.736;30.568;2022-12-18T07:28:55;102018.00;;;-7.10
73937;BMP180;59249;59.736;30.568;2022-12-18T07:31:25;102006.00;;;-7.10
73937;BMP180;59249;59.736;30.568;2022-12-18T07:33:55;102013.00;;;-7.10
73937;BMP180;59249;59.736;30.568;2022-12-18T07:36:24;102005.00;;;-7.10
73937;BMP180;59249;59.736;30.568;2022-12-18T07:38:54;102006.00;;;-7.00
73937;BMP180;59249;59.736;30.568;2022-12-18T07:41:24;102006.00;;;-6.90
73937;BMP180;59249;59.736;30.568;2022-12-18T07:43:53;102009.00;;;-6.90
73937;BMP180;59249;59.736;30.568;2022-12-18T07:46:22;102005.00;;;-7.00
73937;BMP180;59249;59.736;30.568;2022-12-18T07:48:51;102006.00;;;-6.90
73937;BMP180;59249;59.736;30.568;2022-12-18T07:51:20;102000.00;;;-7.00
73937;BMP180;59249;59.736;30.568;2022-12-18T07:53:48;102002.00;;;-7.00
73937;BMP180;59249;59.736;30.568;2022-12-18T07:56:18;102001.00;;;-7.10
73937;BMP180;59249;59.736;30.568;2022-12-18T07:58:56;101992.00;;;-7.10
73937;BMP180;59249;59.736;30.568;2022-12-18T08:01:34;101998.00;;;-7.10
73937;BMP180;59249;59.736;30.568;2022-12-18T08:04:03;101990.00;;;-7.10
73937;BMP180;59249;59.736;30.568;2022-12-18T08:06:32;101995.00;;;-7.10
73937;BMP180;59249;59.736;30.568;2022-12-18T08:09:01;102004.00;;;-7.00
73937;BMP180;59249;59.736;30.568;2022-12-18T08:11:30;101996.00;;;-7.00
73937;BMP180;59249;59.736;30.568;2022-12-18T08:14:00;102007.00;;;-7.00
73937;BMP180;59249;59.736;30.568;2022-12-18T08:16:30;102001.00;;;-7.10
73937;BMP180;59249;59.736;30.568;2022-12-18T08:18:59;102005.00;;;-7.00
73937;BMP180;59249;59.736;30.568;2022-12-18T08:21:30;101998.00;;;-7.00
73937;BMP180;59249;59.736;30.568;2022-12-18T08:24:00;102005.00;;;-7.10
73937;BMP180;59249;59.736;30.568;2022-12-18T08:26:30;102007.00;;;-7.30
73937;BMP180;59249;59.736;30.568;2022-12-18T08:29:01;101998.00;;;-7.30
73937;BMP180;59249;59.736;30.568;2022-12-18T08:31:30;101998.00;;;-7.40
73937;BMP180;59249;59.736;30.568;2022-12-18T08:34:00;102004.00;;;-7.30
73937;BMP180;59249;59.736;30.568;2022-12-18T08:36:28;102008.00;;;-7.20
73937;BMP180;59249;59.736;30.568;2022-12-18T08:38:57;102002.00;;;-7.30
73937;BMP180;59249;59.736;30.568;2022-12-18T08:41:26;102003.00;;;-7.30
73937;BMP180;59249;59.736;30.568;2022-12-18T08:43:55;102006.00;;;-7.20
73937;BMP180;59249;59.736;30.568;2022-12-18T08:46:43;101985.00;;;-7.10
73937;BMP180;59249;59.736;30.568;2022-12-18T08:49:12;101974.00;;;-7.20
73937;BMP180;59249;59.736;30.568;2022-12-18T08:51:41;101972.00;;;-7.20
73937;BMP180;59249;59.736;30.568;2022-12-18T08:54:11;101950.00;;;-7.10
73937;BMP180;59249;59.736;30.568;2022-12-18T08:56:41;101951.00;;;-7.10
73937;BMP180;59249;59.736;30.568;2022-12-18T08:59:09;101973.00;;;-7.10
73937;BMP180;59249;59.736;30.568;2022-12-18T09:01:47;101955.00;;;-7.20
73937;BMP180;59249;59.736;30.568;2022-12-18T09:04:16;101961.00;;;-7.30
73937;BMP180;59249;59.736;30.568;2022-12-18T09:06:44;101964.00;;;-7.30
73937;BMP180;59249;59.736;30.568;2022-12-18T09:09:13;101970.00;;;-7.20
73937;BMP180;59249;59.736;30.568;2022-12-18T09:11:42;101977.00;;;-7.00
73937;BMP180;59249;59.736;30.568;2022-12-18T09:14:11;101978.00;;;-7.00
73937;BMP180;59249;59.736;30.568;2022-12-18T09:16:39;101976.00;;;-7.10
73937;BMP180;59249;59.736;30.568;2022-12-18T09:19:12;101975.00;;;-6.90
73937;BMP180;59249;59.736;30.568;2022-12-18T09:21:41;101964.00;;;-7.10
73937;BMP180;59249;59.736;30.568;2022-12-18T09:24:18;101965.00;;;-7.00
73937;BMP180;59249;59.736;30.568;2022-12-18T09:26:55;101975.00;;;-6.90
73937;BMP180;59249;59.736;30.568;2022-12-18T09:29:24;101970.00;;;-7.00
73937;BMP180;59249;59.736;30.568;2022-12-18T09:31:53;101967.00;;;-6.90
73937;BMP180;59249;59.736;30.568;2022-12-18T09:34:23;101962.00;;;-7.00
73937;BMP180;59249;59.736;30.568;2022-12-18T09:36:52;101970.00;;;-6.90
73937;BMP180;59249;59.736;30.568;2022-12-18T09:39:21;101973.00;;;-6.90
73937;BMP180;59249;59.736;30.568;2022-12-18T09:41:51;101961.00;;;-6.80
73937;BMP180;59249;59.736;30.568;2022-12-18T09:44:24;101962.00;;;-6.80
73937;BMP180;59249;59.736;30.568;2022-12-18T09:47:04;101958.00;;;-6.90
73937;BMP180;59249;59.736;30.568;2022-12-18T09:49:42;101958.00;;;-6.80
73937;BMP180;59249;59.736;30.568;2022-12-18T09:52:16;101951.00;;;-6.90
73937;BMP180;59249;59.736;30.568;2022-12-18T09:54:53;101952.00;;;-6.80
73937;BMP180;59249;59.736;30.568;2022-12-18T09:57:26;101951.00;;;-6.90
73937;BMP180;59249;59.736;30.568;2022-12-18T09:59:58;101942.00;;;-6.90
73937;BMP180;59249;59.736;30.568;2022-12-18T10:02:37;101949.00;;;-6.90
73937;BMP180;59249;59.736;30.568;2022-12-18T10:05:12;101939.00;;;-6.70
73937;BMP180;59249;59.736;30.568;2022-12-18T10:07:49;101935.00;;;-6.80
73937;BMP180;59249;59.736;30.568;2022-12-18T10:10:34;101941.00;;;-6.60
73937;BMP180;59249;59.736;30.568;2022-12-18T10:13:15;101934.00;;;-6.70
73937;BMP180;59249;59.736;30.568;2022-12-18T10:15:58;101931.00;;;-6.60
73937;BMP180;59249;59.736;30.568;2022-12-18T10:18:54;101932.00;;;-6.60
73937;BMP180;59249;59.736;30.568;2022-12-18T10:21:40;101944.00;;;-6.40
73937;BMP180;59249;59.736;30.568;2022-12-18T10:24:19;101937.00;;;-6.50
73937;BMP180;59249;59.736;30.568;2022-12-18T10:26:55;101932.00;;;-6.50
73937;BMP180;59249;59.736;30.568;2022-12-18T10:29:32;101932.00;;;-6.50
73937;BMP180;59249;59.736;30.568;2022-12-18T10:32:01;101926.00;;;-6.60
73937;BMP180;59249;59.736;30.568;2022-12-18T10:34:30;101931.00;;;-6.60
73937;BMP180;59249;59.736;30.568;2022-12-18T10:37:06;101927.00;;;-6.50
73937;BMP180;59249;59.736;30.568;2022-12-18T10:39:39;101920.00;;;-6.50
73937;BMP180;59249;59.736;30.568;2022-12-18T10:42:11;101925.00;;;-6.50
73937;BMP180;59249;59.736;30.568;2022-12-18T10:44:44;101923.00;;;-6.50
73937;BMP180;59249;59.736;30.568;2022-12-18T10:47:15;101917.00;;;-6.30
73937;BMP180;59249;59.736;30.568;2022-12-18T10:49:49;101915.00;;;-6.30
73937;BMP180;59249;59.736;30.568;2022-12-18T10:52:25;101907.00;;;-6.30
73937;BMP180;59249;59.736;30.568;2022-12-18T10:54:59;101896.00;;;-6.20
73937;BMP180;59249;59.736;30.568;2022-12-18T10:57:34;101900.00;;;-6.30
73937;BMP180;59249;59.736;30.568;2022-12-18T11:00:27;101893.00;;;-6.40
73937;BMP180;59249;59.736;30.568;2022-12-18T11:03:32;101903.00;;;-6.30
73937;BMP180;59249;59.736;30.568;2022-12-18T11:06:07;101921.00;;;-6.30
73937;BMP180;59249;59.736;30.568;2022-12-18T11:08:39;101923.00;;;-6.30
73937;BMP180;59249;59.736;30.568;2022-12-18T11:11:20;101915.00;;;-6.20
73937;BMP180;59249;59.736;30.568;2022-12-18T11:14:04;101923.00;;;-6.30
73937;BMP180;59249;59.736;30.568;2022-12-18T11:16:42;101926.00;;;-6.40
73937;BMP180;59249;59.736;30.568;2022-12-18T11:19:35;101919.00;;;-6.30
73937;BMP180;59249;59.736;30.568;2022-12-18T11:22:19;101921.00;;;-6.40
73937;BMP180;59249;59.736;30.568;2022-12-18T11:24:54;101909.00;;;-6.30
73937;BMP180;59249;59.736;30.568;2022-12-18T11:27:48;101918.00;;;-6.40
73937;BMP180;59249;59.736;30.568;2022-12-18T11:30:25;101918.00;;;-6.30
73937;BMP180;59249;59.736;30.568;2022-12-18T11:32:59;101907.00;;;-6.40
73937;BMP180;59249;59.736;30.568;2022-12-18T11:35:40;101907.00;;;-6.50
73937;BMP180;59249;59.736;30.568;2022-12-18T11:38:19;101892.00;;;-6.50
73937;BMP180;59249;59.736;30.568;2022-12-18T11:40:56;101893.00;;;-6.50
73937;BMP180;59249;59.736;30.568;2022-12-18T11:43:31;101895.00;;;-6.50
73937;BMP180;59249;59.736;30.568;2022-12-18T11:46:06;101884.00;;;-6.50
73937;BMP180;59249;59.736;30.568;2022-12-18T11:48:49;101884.00;;;-6.50
73937;BMP180;59249;59.736;30.568;2022-12-18T11:51:29;101876.00;;;-6.50
73937;BMP180;59249;59.736;30.568;2022-12-18T11:54:12;101885.00;;;-6.50
73937;BMP180;59249;59.736;30.568;2022-12-18T11:56:48;101880.00;;;-6.40
73937;BMP180;59249;59.736;30.568;2022-12-18T11:59:27;101870.00;;;-6.30
73937;BMP180;59249;59.736;30.568;2022-12-18T12:02:15;101864.00;;;-6.30
73937;BMP180;59249;59.736;30.568;2022-12-18T12:05:11;101860.00;;;-6.50
73937;BMP180;59249;59.736;30.568;2022-12-18T12:07:53;101872.00;;;-6.40
73937;BMP180;59249;59.736;30.568;2022-12-18T12:10:38;101861.00;;;-6.40
73937;BMP180;59249;59.736;30.568;2022-12-18T12:13:23;101863.00;;;-6.40
73937;BMP180;59249;59.736;30.568;2022-12-18T12:16:10;101853.00;;;-6.40
73937;BMP180;59249;59.736;30.568;2022-12-18T12:19:03;101859.00;;;-6.30
73937;BMP180;59249;59.736;30.568;2022-12-18T12:21:50;101855.00;;;-6.30
73937;BMP180;59249;59.736;30.568;2022-12-18T12:24:36;101844.00;;;-6.40
73937;BMP180;59249;59.736;30.568;2022-12-18T12:27:19;101849.00;;;-6.40
73937;BMP180;59249;59.736;30.568;2022-12-18T12:30:04;101844.00;;;-6.50
73937;BMP180;59249;59.736;30.568;2022-12-18T12:33:11;101846.00;;;-6.40
73937;BMP180;59249;59.736;30.568;2022-12-18T12:35:56;101842.00;;;-6.40
73937;BMP180;59249;59.736;30.568;2022-12-18T12:38:36;101843.00;;;-6.50
73937;BMP180;59249;59.736;30.568;2022-12-18T12:41:20;101845.00;;;-6.50
73937;BMP180;59249;59.736;30.568;2022-12-18T12:44:15;101850.00;;;-6.50
73937;BMP180;59249;59.736;30.568;2022-12-18T12:46:52;101853.00;;;-6.60
73937;BMP180;59249;59.736;30.568;2022-12-18T12:49:29;101845.00;;;-6.60
73937;BMP180;59249;59.736;30.568;2022-12-18T12:52:12;101845.00;;;-6.70
73937;BMP180;59249;59.736;30.568;2022-12-18T12:54:45;101856.00;;;-6.80
73937;BMP180;59249;59.736;30.568;2022-12-18T12:57:20;101857.00;;;-6.80
73937;BMP180;59249;59.736;30.568;2022-12-18T12:59:58;101860.00;;;-6.70
73937;BMP180;59249;59.736;30.568;2022-12-18T13:02:35;101865.00;;;-6.80
73937;BMP180;59249;59.736;30.568;2022-12-18T13:05:16;101858.00;;;-6.90
73937;BMP180;59249;59.736;30.568;2022-12-18T13:07:55;101856.00;;;-7.00
73937;BMP180;59249;59.736;30.568;2022-12-18T13:10:34;101850.00;;;-7.10
73937;BMP180;59249;59.736;30.568;2022-12-18T13:13:07;101851.00;;;-7.20
73937;BMP180;59249;59.736;30.568;2022-12-18T13:15:39;101847.00;;;-7.30
73937;BMP180;59249;59.736;30.568;2022-12-18T13:18:22;101851.00;;;-7.40
73937;BMP180;59249;59.736;30.568;2022-12-18T13:21:04;101845.00;;;-7.40
73937;BMP180;59249;59.736;30.568;2022-12-18T13:23:41;101846.00;;;-7.50
73937;BMP180;59249;59.736;30.568;2022-12-18T13:26:31;101850.00;;;-7.50
73937;BMP180;59249;59.736;30.568;2022-12-18T13:29:02;101843.00;;;-7.60
73937;BMP180;59249;59.736;30.568;2022-12-18T13:34:30;101834.00;;;-7.70
73937;BMP180;59249;59.736;30.568;2022-12-18T13:43:47;101840.00;;;-8.00
73937;BMP180;59249;59.736;30.568;2022-12-18T13:46:26;101841.00;;;-8.00
73937;BMP180;59249;59.736;30.568;2022-12-18T13:49:01;101837.00;;;-8.00
73937;BMP180;59249;59.736;30.568;2022-12-18T13:51:34;101827.00;;;-7.90
73937;BMP180;59249;59.736;30.568;2022-12-18T13:54:14;101831.00;;;-7.90
73937;BMP180;59249;59.736;30.568;2022-12-18T13:56:48;101828.00;;;-7.80
73937;BMP180;59249;59.736;30.568;2022-12-18T13:59:19;101824.00;;;-7.70
73937;BMP180;59249;59.736;30.568;2022-12-18T14:01:54;101815.00;;;-7.70
73937;BMP180;59249;59.736;30.568;2022-12-18T14:04:26;101819.00;;;-7.60
73937;BMP180;59249;59.736;30.568;2022-12-18T14:07:01;101814.00;;;-7.40
73937;BMP180;59249;59.736;30.568;2022-12-18T14:09:36;101806.00;;;-7.40
73937;BMP180;59249;59.736;30.568;2022-12-18T14:12:14;101810.00;;;-7.30
73937;BMP180;59249;59.736;30.568;2022-12-18T14:15:05;101803.00;;;-7.10
73937;BMP180;59249;59.736;30.568;2022-12-18T14:17:49;101802.00;;;-7.00
73937;BMP180;59249;59.736;30.568;2022-12-18T14:20:20;101812.00;;;-6.90
73937;BMP180;59249;59.736;30.568;2022-12-18T14:22:49;101804.00;;;-6.90
73937;BMP180;59249;59.736;30.568;2022-12-18T14:25:21;101804.00;;;-6.70
73937;BMP180;59249;59.736;30.568;2022-12-18T14:28:12;101797.00;;;-6.60
73937;BMP180;59249;59.736;30.568;2022-12-18T14:30:45;101797.00;;;-6.60
73937;BMP180;59249;59.736;30.568;2022-12-18T14:33:19;101794.00;;;-6.50
73937;BMP180;59249;59.736;30.568;2022-12-18T14:35:56;101800.00;;;-6.40